createdAt,value
2022-08-11T00:01:30.204Z,19.50
2022-08-11T00:04:08.673Z,19.50
2022-08-11T00:06:49.128Z,19.50
2022-08-11T00:09:38.896Z,19.50
2022-08-11T00:12:19.196Z,20.00
2022-08-11T00:15:02.419Z,19.50
2022-08-11T00:17:41.888Z,19.50
2022-08-11T00:20:20.927Z,19.50
2022-08-11T00:23:18.198Z,19.00
2022-08-11T00:25:58.814Z,19.00
2022-08-11T00:28:37.657Z,19.50
2022-08-11T00:31:35.376Z,19.50
2022-08-11T00:34:15.405Z,19.50
2022-08-11T00:37:11.637Z,19.50
2022-08-11T00:39:57.515Z,19.50
2022-08-11T00:43:35.017Z,19.50
2022-08-11T00:46:27.322Z,19.50
2022-08-11T00:49:41.314Z,19.00
2022-08-11T00:52:40.845Z,19.00
2022-08-11T00:56:05.015Z,19.00
2022-08-11T00:59:36.188Z,19.00
2022-08-11T01:03:13.161Z,19.00
2022-08-11T01:06:38.700Z,19.00
2022-08-11T01:09:44.871Z,19.00
2022-08-11T01:12:45.944Z,19.00
2022-08-11T01:15:59.612Z,18.50
2022-08-11T01:19:15.344Z,19.00
2022-08-11T01:22:40.378Z,19.00
2022-08-11T01:25:57.245Z,18.50
2022-08-11T01:29:29.979Z,19.00
2022-08-11T01:32:44.865Z,19.00
2022-08-11T01:35:37.393Z,19.00
2022-08-11T01:38:56.879Z,18.50
2022-08-11T01:42:18.367Z,18.50
2022-08-11T01:44:58.985Z,19.00
2022-08-11T01:48:34.200Z,18.50
2022-08-11T01:52:03.381Z,19.00
2022-08-11T01:55:18.225Z,18.50
2022-08-11T01:58:15.343Z,18.50
2022-08-11T02:01:07.597Z,18.50
2022-08-11T02:04:11.008Z,18.50
2022-08-11T02:07:13.045Z,18.50
2022-08-11T02:10:38.281Z,18.50
2022-08-11T02:13:37.729Z,18.50
2022-08-11T02:17:03.624Z,18.50
2022-08-11T02:20:28.012Z,18.50
2022-08-11T02:24:06.155Z,18.00
2022-08-11T02:26:50.307Z,18.50
2022-08-11T02:29:43.987Z,18.50
2022-08-11T02:32:51.287Z,18.50
2022-08-11T02:35:58.941Z,18.00
2022-08-11T02:39:13.178Z,18.50
2022-08-11T02:42:32.681Z,18.00
2022-08-11T02:45:50.243Z,18.00
2022-08-11T02:48:57.968Z,18.00
2022-08-11T02:51:55.695Z,18.00
2022-08-11T02:54:52.760Z,18.00
2022-08-11T02:58:22.057Z,18.00
2022-08-11T03:01:33.363Z,18.00
2022-08-11T03:04:25.292Z,18.00
2022-08-11T03:07:28.499Z,18.00
2022-08-11T03:10:24.848Z,18.00
2022-08-11T03:13:47.916Z,18.00
2022-08-11T03:16:47.220Z,18.00
2022-08-11T03:20:05.988Z,18.00
2022-08-11T03:23:32.644Z,18.00
2022-08-11T03:26:39.931Z,18.00
2022-08-11T03:29:34.517Z,18.00
2022-08-11T03:32:39.796Z,18.00
2022-08-11T03:35:21.662Z,18.00
2022-08-11T03:38:10.483Z,18.00
2022-08-11T03:41:50.471Z,18.00
2022-08-11T03:44:21.212Z,18.00
2022-08-11T03:47:37.208Z,18.00
2022-08-11T03:50:39.815Z,18.00
2022-08-11T03:53:49.400Z,18.00
2022-08-11T03:57:17.179Z,18.00
2022-08-11T04:00:10.317Z,18.00
2022-08-11T04:03:47.073Z,18.00
2022-08-11T04:06:41.016Z,18.00
2022-08-11T04:10:22.173Z,18.00
2022-08-11T04:13:36.739Z,18.00
2022-08-11T04:16:59.064Z,18.00
2022-08-11T04:19:46.031Z,18.00
2022-08-11T04:22:44.802Z,18.00
2022-08-11T04:25:58.589Z,18.00
2022-08-11T04:29:36.053Z,18.00
2022-08-11T04:33:12.665Z,18.00
2022-08-11T04:36:10.942Z,18.00
2022-08-11T04:39:23.980Z,18.00
2022-08-11T04:43:11.640Z,17.50
2022-08-11T04:46:39.404Z,18.00
2022-08-11T04:49:44.736Z,18.00
2022-08-11T04:53:10.362Z,18.00
2022-08-11T04:56:22.935Z,17.50
2022-08-11T04:59:44.270Z,17.50
2022-08-11T05:02:35.746Z,18.00
2022-08-11T05:05:37.702Z,18.00
2022-08-11T05:09:03.036Z,18.00
2022-08-11T05:11:57.895Z,18.00
2022-08-11T05:15:14.203Z,18.00
2022-08-11T05:18:36.341Z,18.00
2022-08-11T05:21:44.471Z,18.00
2022-08-11T05:24:51.438Z,18.00
2022-08-11T05:27:57.983Z,18.00
2022-08-11T05:31:00.681Z,18.00
2022-08-11T05:34:09.199Z,18.00
2022-08-11T05:37:25.080Z,18.00
2022-08-11T05:40:41.812Z,18.00
2022-08-11T05:44:20.176Z,18.00
2022-08-11T05:47:05.991Z,18.00
2022-08-11T05:50:13.602Z,18.00
2022-08-11T05:53:13.056Z,18.00
2022-08-11T05:56:13.436Z,18.00
2022-08-11T05:58:55.028Z,18.00
2022-08-11T06:01:35.268Z,18.00
2022-08-11T06:04:33.159Z,18.00
2022-08-11T06:07:17.780Z,18.00
2022-08-11T06:09:57.049Z,18.00
2022-08-11T06:12:37.811Z,18.00
2022-08-11T06:15:16.269Z,18.00
2022-08-11T06:17:57.525Z,18.00
2022-08-11T06:20:48.397Z,18.00
2022-08-11T06:23:36.287Z,18.50
2022-08-11T06:26:15.916Z,18.00
2022-08-11T06:29:01.723Z,18.00
2022-08-11T06:31:40.839Z,18.00
2022-08-11T06:35:00.169Z,18.50
2022-08-11T06:37:58.969Z,18.50
2022-08-11T06:41:14.062Z,18.50
2022-08-11T06:44:06.103Z,18.50
2022-08-11T06:46:48.729Z,19.00
2022-08-11T06:49:56.952Z,19.00
2022-08-11T06:52:39.185Z,19.00
2022-08-11T06:55:57.589Z,19.00
2022-08-11T06:59:00.612Z,19.00
2022-08-11T07:02:05.856Z,19.00
2022-08-11T07:05:01.131Z,19.50
2022-08-11T07:08:35.367Z,19.50
2022-08-11T07:12:14.804Z,19.50
2022-08-11T07:15:15.001Z,19.50
2022-08-11T07:18:18.267Z,20.00
2022-08-11T07:22:01.852Z,20.00
2022-08-11T07:25:01.796Z,20.00
2022-08-11T07:28:06.630Z,20.00
2022-08-11T07:30:46.231Z,20.00
2022-08-11T07:34:08.334Z,20.00
2022-08-11T07:36:57.690Z,20.50
2022-08-11T07:39:39.374Z,20.50
2022-08-11T07:42:28.067Z,20.50
2022-08-11T07:45:26.940Z,20.50
2022-08-11T07:48:25.548Z,20.50
2022-08-11T07:51:23.510Z,21.00
2022-08-11T07:54:07.491Z,21.00
2022-08-11T07:57:07.346Z,21.00
2022-08-11T08:00:06.698Z,21.00
2022-08-11T08:03:05.251Z,21.00
2022-08-11T08:06:03.102Z,21.50
2022-08-11T08:09:01.708Z,21.50
2022-08-11T08:11:59.523Z,21.50
2022-08-11T08:14:57.287Z,21.50
2022-08-11T08:18:09.630Z,21.50
2022-08-11T08:20:52.238Z,21.50
2022-08-11T08:23:33.933Z,21.50
2022-08-11T08:26:35.505Z,21.50
2022-08-11T08:29:32.130Z,22.00
2022-08-11T08:32:12.146Z,22.00
2022-08-11T08:34:55.886Z,22.00
2022-08-11T08:37:45.393Z,22.00
2022-08-11T08:40:24.825Z,22.00
2022-08-11T08:43:12.770Z,22.50
2022-08-11T08:45:57.106Z,22.50
2022-08-11T08:48:36.418Z,22.50
2022-08-11T08:52:01.216Z,22.50
2022-08-11T08:54:46.261Z,22.50
2022-08-11T08:57:29.269Z,22.00
2022-08-11T09:00:12.379Z,22.50
2022-08-11T09:02:53.275Z,22.50
2022-08-11T09:05:32.052Z,22.00
2022-08-11T09:08:11.538Z,23.00
2022-08-11T09:11:13.746Z,23.00
2022-08-11T09:14:05.580Z,23.00
2022-08-11T09:16:47.234Z,22.50
2022-08-11T09:19:27.481Z,23.00
2022-08-11T09:22:25.307Z,23.00
2022-08-11T09:25:24.684Z,23.00
2022-08-11T09:28:05.176Z,22.50
2022-08-11T09:30:47.004Z,22.50
2022-08-11T09:33:26.235Z,22.50
2022-08-11T09:36:25.350Z,23.00
2022-08-11T09:39:24.684Z,23.50
2022-08-11T09:42:05.223Z,23.00
2022-08-11T09:44:50.508Z,23.00
2022-08-11T09:47:31.793Z,23.50
2022-08-11T09:50:11.495Z,23.50
2022-08-11T09:53:16.766Z,23.50
2022-08-11T09:55:51.886Z,23.00
2022-08-11T09:58:43.006Z,23.00
2022-08-11T10:01:30.037Z,23.50
2022-08-11T10:04:40.348Z,23.50
2022-08-11T10:07:20.899Z,23.50
2022-08-11T10:10:05.452Z,23.50
2022-08-11T10:12:52.197Z,24.00
2022-08-11T10:15:35.804Z,23.50
2022-08-11T10:18:42.689Z,24.00
2022-08-11T10:21:37.873Z,24.50
2022-08-11T10:24:34.912Z,24.00
2022-08-11T10:27:15.196Z,23.50
2022-08-11T10:30:12.854Z,24.50
2022-08-11T10:33:10.801Z,25.00
2022-08-11T10:35:57.893Z,24.50
2022-08-11T10:38:37.576Z,24.50
2022-08-11T10:41:34.688Z,24.50
2022-08-11T10:44:14.330Z,24.50
2022-08-11T10:47:12.192Z,25.00
2022-08-11T10:50:08.073Z,25.00
2022-08-11T10:53:09.144Z,24.00
2022-08-11T10:56:07.095Z,25.00
2022-08-11T10:58:49.925Z,24.50
2022-08-11T11:01:36.636Z,25.00
2022-08-11T11:04:18.031Z,25.00
2022-08-11T11:07:13.988Z,25.00
2022-08-11T11:09:56.816Z,25.00
2022-08-11T11:13:00.630Z,25.50
2022-08-11T11:16:03.130Z,24.50
2022-08-11T11:18:43.113Z,25.00
2022-08-11T11:21:22.180Z,25.00
2022-08-11T11:24:52.440Z,25.00
2022-08-11T11:28:10.203Z,25.00
2022-08-11T11:31:26.616Z,25.00
2022-08-11T11:34:22.174Z,24.50
2022-08-11T11:37:03.519Z,25.00
2022-08-11T11:39:41.872Z,25.50
2022-08-11T11:42:21.881Z,24.50
2022-08-11T11:45:01.471Z,25.00
2022-08-11T11:47:40.428Z,25.50
2022-08-11T11:50:31.793Z,24.50
2022-08-11T11:53:12.523Z,24.50
2022-08-11T11:55:51.408Z,25.00
2022-08-11T11:59:05.791Z,25.50
2022-08-11T12:01:50.450Z,25.50
2022-08-11T12:04:31.324Z,24.50
2022-08-11T12:07:29.386Z,25.50
2022-08-11T12:10:09.269Z,25.50
2022-08-11T12:13:21.427Z,25.00
2022-08-11T12:16:34.518Z,25.50
2022-08-11T12:19:07.076Z,25.50
2022-08-11T12:22:05.239Z,25.50
2022-08-11T12:25:03.773Z,25.00
2022-08-11T12:27:42.520Z,25.50
2022-08-11T12:30:21.061Z,26.00
2022-08-11T12:32:59.558Z,25.50
2022-08-11T12:35:38.333Z,26.00
2022-08-11T12:38:29.645Z,26.00
2022-08-11T12:41:27.149Z,26.00
2022-08-11T12:44:30.884Z,25.50
2022-08-11T12:47:10.979Z,25.50
2022-08-11T12:50:21.688Z,26.00
2022-08-11T12:53:01.713Z,25.50
2022-08-11T12:56:07.615Z,26.00
2022-08-11T12:58:49.088Z,25.50
2022-08-11T13:01:49.762Z,25.50
2022-08-11T13:04:48.650Z,25.00
2022-08-11T13:07:50.983Z,25.50
2022-08-11T13:10:58.817Z,26.00
2022-08-11T13:13:53.508Z,26.00
2022-08-11T13:16:56.685Z,25.50
2022-08-11T13:19:36.143Z,26.00
2022-08-11T13:22:19.371Z,26.00
2022-08-11T13:24:59.160Z,26.00
2022-08-11T13:27:37.362Z,26.00
2022-08-11T13:30:40.355Z,26.00
2022-08-11T13:33:20.876Z,26.50
2022-08-11T13:35:59.410Z,26.00
2022-08-11T13:38:43.578Z,25.50
2022-08-11T13:41:39.588Z,26.50
2022-08-11T13:44:24.663Z,26.50
2022-08-11T13:47:06.722Z,26.50
2022-08-11T13:49:46.001Z,26.00
2022-08-11T13:52:24.252Z,26.00
2022-08-11T13:55:04.087Z,26.50
2022-08-11T13:58:07.242Z,26.50
2022-08-11T14:00:42.695Z,27.00
2022-08-11T14:04:31.417Z,26.50
2022-08-11T14:06:32.397Z,26.50
2022-08-11T14:09:12.748Z,26.50
2022-08-11T14:12:21.328Z,26.50
2022-08-11T14:15:11.660Z,26.50
2022-08-11T14:18:07.781Z,26.50
2022-08-11T14:21:13.618Z,27.00
2022-08-11T14:23:55.472Z,26.50
2022-08-11T14:26:39.063Z,26.50
2022-08-11T14:29:21.899Z,27.00
2022-08-11T14:32:04.203Z,27.00
2022-08-11T14:34:45.328Z,27.00
2022-08-11T14:37:27.834Z,27.50
2022-08-11T14:40:31.702Z,27.00
2022-08-11T14:44:14.218Z,27.00
2022-08-11T14:47:01.510Z,27.00
2022-08-11T14:49:56.066Z,27.00
2022-08-11T14:52:43.442Z,26.50
2022-08-11T14:55:42.585Z,26.50
2022-08-11T14:58:24.474Z,27.50
2022-08-11T15:01:24.696Z,27.00
2022-08-11T15:04:35.369Z,26.50
2022-08-11T15:07:01.563Z,27.00
2022-08-11T15:10:02.711Z,26.50
2022-08-11T15:12:42.667Z,27.00
2022-08-11T15:15:41.034Z,27.50
2022-08-11T15:18:24.275Z,27.50
2022-08-11T15:21:21.173Z,27.50
2022-08-11T15:24:18.269Z,27.00
2022-08-11T15:27:19.644Z,27.00
2022-08-11T15:30:32.305Z,27.00
2022-08-11T15:33:34.275Z,27.00
2022-08-11T15:36:33.947Z,27.00
2022-08-11T15:39:27.574Z,27.50
2022-08-11T15:42:33.528Z,27.50
2022-08-11T15:45:33.138Z,27.50
2022-08-11T15:48:21.800Z,27.00
2022-08-11T15:51:46.379Z,27.50
2022-08-11T15:54:31.400Z,27.50
2022-08-11T15:57:38.301Z,27.00
2022-08-11T16:00:48.626Z,27.50
2022-08-11T16:04:12.978Z,27.00
2022-08-11T16:07:12.948Z,27.00
2022-08-11T16:10:19.541Z,27.00
2022-08-11T16:13:07.317Z,27.00
2022-08-11T16:16:12.234Z,27.00
2022-08-11T16:18:57.021Z,27.00
2022-08-11T16:21:39.328Z,27.00
2022-08-11T16:27:02.536Z,27.50
2022-08-11T16:27:24.505Z,27.00
2022-08-11T16:30:05.994Z,27.00
2022-08-11T16:32:52.219Z,27.00
2022-08-11T16:35:53.399Z,27.00
2022-08-11T16:38:35.758Z,27.00
2022-08-11T16:41:41.828Z,27.00
2022-08-11T16:44:41.929Z,27.00
2022-08-11T16:48:02.677Z,27.00
2022-08-11T16:50:22.870Z,27.00
2022-08-11T16:53:01.011Z,27.00
2022-08-11T16:55:52.208Z,27.00
2022-08-11T16:58:51.691Z,27.00
2022-08-11T17:01:32.667Z,27.00
2022-08-11T17:04:56.529Z,27.00
2022-08-11T17:08:01.150Z,27.00
2022-08-11T17:11:06.889Z,26.50
2022-08-11T17:13:56.024Z,26.50
2022-08-11T17:16:40.036Z,27.00
2022-08-11T17:20:40.475Z,27.00
2022-08-11T17:22:47.324Z,26.50
2022-08-11T17:25:28.588Z,26.50
2022-08-11T17:28:08.451Z,27.00
2022-08-11T17:31:22.307Z,27.00
2022-08-11T17:34:21.251Z,27.00
2022-08-11T17:37:00.601Z,26.50
2022-08-11T17:39:40.348Z,26.50
2022-08-11T17:42:37.723Z,26.50
2022-08-11T17:45:37.813Z,26.50
2022-08-11T17:48:26.095Z,26.50
2022-08-11T17:51:37.288Z,26.50
2022-08-11T17:54:35.201Z,26.50
2022-08-11T17:57:36.733Z,26.50
2022-08-11T18:00:15.700Z,26.50
2022-08-11T18:03:14.562Z,26.50
2022-08-11T18:05:52.928Z,26.50
2022-08-11T18:08:53.310Z,26.50
2022-08-11T18:12:10.235Z,26.00
2022-08-11T18:15:12.962Z,26.50
2022-08-11T18:18:10.237Z,26.00
2022-08-11T18:21:06.898Z,26.00
2022-08-11T18:24:06.397Z,26.00
2022-08-11T18:27:05.942Z,26.00
2022-08-11T18:30:07.069Z,25.50
2022-08-11T18:33:44.900Z,26.00
2022-08-11T18:36:27.826Z,25.50
2022-08-11T18:39:31.085Z,25.50
2022-08-11T18:42:35.588Z,25.50
2022-08-11T18:45:45.219Z,25.50
2022-08-11T18:52:07.991Z,25.00
2022-08-11T18:55:08.468Z,25.00
2022-08-11T18:58:14.252Z,25.00
2022-08-11T19:01:17.291Z,25.00
2022-08-11T19:04:17.394Z,24.50
2022-08-11T19:07:20.690Z,24.00
2022-08-11T19:10:18.679Z,24.00
2022-08-11T19:13:16.724Z,24.00
2022-08-11T19:16:15.204Z,24.00
2022-08-11T19:19:14.552Z,24.00
2022-08-11T19:22:12.000Z,23.50
2022-08-11T19:25:11.976Z,23.50
2022-08-11T19:28:12.833Z,23.50
2022-08-11T19:31:12.783Z,23.50
2022-08-11T19:34:10.953Z,23.50
2022-08-11T19:37:08.686Z,23.50
2022-08-11T19:40:07.599Z,23.00
2022-08-11T19:43:11.257Z,23.00
2022-08-11T19:46:21.743Z,23.00
2022-08-11T19:49:20.887Z,23.00
2022-08-11T19:52:19.017Z,23.00
2022-08-11T19:55:16.803Z,23.00
2022-08-11T19:58:14.993Z,23.00
2022-08-11T20:01:11.916Z,23.00
2022-08-11T20:04:09.269Z,23.00
2022-08-11T20:07:07.155Z,23.00
2022-08-11T20:10:08.966Z,22.50
2022-08-11T20:13:08.177Z,22.50
2022-08-11T20:16:05.819Z,22.50
2022-08-11T20:19:04.774Z,22.00
2022-08-11T20:22:07.912Z,22.50
2022-08-11T20:25:08.074Z,22.50
2022-08-11T20:28:07.992Z,22.50
2022-08-11T20:31:05.432Z,22.50
2022-08-11T20:34:03.539Z,22.50
2022-08-11T20:37:02.810Z,22.00
2022-08-11T20:40:02.060Z,22.00
2022-08-11T20:43:01.651Z,21.50
2022-08-11T20:45:58.735Z,22.00
2022-08-11T20:48:56.257Z,21.50
2022-08-11T20:51:54.693Z,21.50
2022-08-11T20:54:55.061Z,21.50
2022-08-11T20:58:03.754Z,21.50
2022-08-11T21:01:03.090Z,21.50
2022-08-11T21:04:00.738Z,21.50
2022-08-11T21:06:59.908Z,21.50
2022-08-11T21:10:10.305Z,21.50
2022-08-11T21:13:25.545Z,21.50
2022-08-11T21:16:27.697Z,22.00
2022-08-11T21:19:54.808Z,22.00
2022-08-11T21:23:05.931Z,21.50
2022-08-11T21:26:09.383Z,21.50
2022-08-11T21:29:08.923Z,21.50
2022-08-11T21:32:07.535Z,21.50
2022-08-11T21:35:06.769Z,21.50
2022-08-11T21:38:07.048Z,21.50
2022-08-11T21:41:08.934Z,22.00
2022-08-11T21:44:11.168Z,22.00
2022-08-11T21:47:10.192Z,22.00
2022-08-11T21:50:07.833Z,22.00
2022-08-11T21:53:04.691Z,22.00
2022-08-11T21:56:02.833Z,22.50
2022-08-11T21:59:06.865Z,22.00
2022-08-11T22:02:11.936Z,22.00
2022-08-11T22:05:11.028Z,22.50
2022-08-11T22:08:08.501Z,22.00
2022-08-11T22:11:05.804Z,22.00
2022-08-11T22:14:07.955Z,21.50
2022-08-11T22:17:05.124Z,21.50
2022-08-11T22:20:02.699Z,21.00
2022-08-11T22:23:00.907Z,21.50
2022-08-11T22:26:06.393Z,21.50
2022-08-11T22:29:04.302Z,21.50
2022-08-11T22:32:02.074Z,21.50
2022-08-11T22:35:01.486Z,21.50
2022-08-11T22:37:59.741Z,21.00
2022-08-11T22:40:56.732Z,21.50
2022-08-11T22:43:53.850Z,21.00
2022-08-11T22:46:53.585Z,21.00
2022-08-11T22:49:56.972Z,21.50
2022-08-11T22:52:56.397Z,21.50
2022-08-11T22:55:53.188Z,21.50
2022-08-11T22:58:51.089Z,21.50
2022-08-11T23:01:55.507Z,21.50
2022-08-11T23:04:54.557Z,21.50
2022-08-11T23:07:52.191Z,21.00
2022-08-11T23:10:50.200Z,21.50
2022-08-11T23:13:50.843Z,21.00
2022-08-11T23:16:50.420Z,21.00
2022-08-11T23:20:08.350Z,21.00
2022-08-11T23:23:06.144Z,21.00
2022-08-11T23:26:05.207Z,21.00
2022-08-11T23:29:06.158Z,20.50
2022-08-11T23:32:05.304Z,21.00
2022-08-11T23:35:39.086Z,20.50
2022-08-11T23:38:26.722Z,20.50
2022-08-11T23:41:24.753Z,20.50
2022-08-11T23:44:23.893Z,20.50
2022-08-11T23:47:23.261Z,20.50
2022-08-11T23:50:19.825Z,20.50
2022-08-11T23:53:17.405Z,20.50
2022-08-11T23:56:14.530Z,20.50
2022-08-11T23:59:11.283Z,20.50
